MRN77 EDMK-LSZB
Flight info
| Callsign | MRN77 |
|---|---|
| Flight time | N/A |
| Altitude | 8000 |
| Route | BODAN Z601 TRA L856 HOC/N0178F070 DCT WIL |
| Aircraft | C208/L-SDFGR/C |
Departure
| Time | N/A |
|---|---|
| Airport | Kempten-Durach Airfield (EDMK) |
Arrival
| Time | 2026-04-21 16:18 |
|---|---|
| Airport | Bern Airport (LSZB) |
| Time | Latitude | Longitude | Altitude | Speed | Heading |
|---|---|---|---|---|---|
| 2026-04-21 16:05 | 47.34807 | 7.63449 | 7972 ft | 190 kts | 216° |
| 2026-04-21 16:05 | 47.33796 | 7.62382 | 7982 ft | 190 kts | 216° |
| 2026-04-21 16:05 | 47.32723 | 7.61242 | 7978 ft | 190 kts | 216° |
| 2026-04-21 16:06 | 47.31648 | 7.60101 | 7978 ft | 190 kts | 216° |
| 2026-04-21 16:06 | 47.30576 | 7.58957 | 7978 ft | 190 kts | 216° |
| 2026-04-21 16:06 | 47.29500 | 7.57817 | 7979 ft | 191 kts | 216° |
| 2026-04-21 16:06 | 47.29286 | 7.57590 | 7976 ft | 191 kts | 216° |
| 2026-04-21 16:07 | 47.28104 | 7.56335 | 7981 ft | 190 kts | 216° |
| 2026-04-21 16:07 | 47.27477 | 7.55670 | 7982 ft | 190 kts | 216° |
| 2026-04-21 16:07 | 47.26666 | 7.54811 | 7979 ft | 191 kts | 216° |
| 2026-04-21 16:07 | 47.25602 | 7.53688 | 7979 ft | 190 kts | 216° |
| 2026-04-21 16:08 | 47.23488 | 7.51457 | 7979 ft | 191 kts | 216° |
| 2026-04-21 16:08 | 47.22433 | 7.50341 | 7968 ft | 191 kts | 216° |
| 2026-04-21 16:08 | 47.21394 | 7.49243 | 7829 ft | 194 kts | 216° |
| 2026-04-21 16:09 | 47.20304 | 7.48081 | 7626 ft | 189 kts | 216° |
| 2026-04-21 16:09 | 47.19258 | 7.46970 | 7426 ft | 182 kts | 215° |
| 2026-04-21 16:09 | 47.18220 | 7.45901 | 7223 ft | 184 kts | 214° |
| 2026-04-21 16:09 | 47.17168 | 7.44812 | 7032 ft | 186 kts | 214° |
| 2026-04-21 16:10 | 47.16157 | 7.43757 | 6832 ft | 186 kts | 214° |
| 2026-04-21 16:10 | 47.15095 | 7.42641 | 6639 ft | 187 kts | 214° |
| 2026-04-21 16:10 | 47.14033 | 7.41521 | 6442 ft | 188 kts | 214° |
| 2026-04-21 16:10 | 47.12969 | 7.40405 | 6221 ft | 187 kts | 214° |
| 2026-04-21 16:11 | 47.11927 | 7.39309 | 6036 ft | 188 kts | 214° |
| 2026-04-21 16:11 | 47.10863 | 7.38190 | 5833 ft | 188 kts | 214° |
| 2026-04-21 16:11 | 47.09831 | 7.37112 | 5638 ft | 189 kts | 214° |
| 2026-04-21 16:11 | 47.08732 | 7.36080 | 5436 ft | 186 kts | 208° |
| 2026-04-21 16:12 | 47.07612 | 7.35137 | 5238 ft | 185 kts | 209° |
| 2026-04-21 16:12 | 47.06507 | 7.34170 | 5028 ft | 185 kts | 208° |
| 2026-04-21 16:12 | 47.05318 | 7.33480 | 4816 ft | 180 kts | 180° |
| 2026-04-21 16:12 | 47.04216 | 7.33906 | 4604 ft | 172 kts | 143° |
| 2026-04-21 16:13 | 47.03228 | 7.34874 | 4448 ft | 171 kts | 142° |
| 2026-04-21 16:13 | 47.02248 | 7.35847 | 4351 ft | 166 kts | 139° |
| 2026-04-21 16:13 | 47.01361 | 7.36812 | 4379 ft | 147 kts | 135° |
| 2026-04-21 16:13 | 47.00593 | 7.37729 | 4396 ft | 139 kts | 133° |
| 2026-04-21 16:14 | 46.99893 | 7.38648 | 4316 ft | 140 kts | 128° |
| 2026-04-21 16:14 | 46.99193 | 7.39654 | 4121 ft | 143 kts | 129° |
| 2026-04-21 16:14 | 46.98456 | 7.40675 | 3804 ft | 147 kts | 132° |
| 2026-04-21 16:14 | 46.97693 | 7.41659 | 3546 ft | 142 kts | 131° |
| 2026-04-21 16:15 | 46.97011 | 7.42591 | 3456 ft | 130 kts | 129° |
| 2026-04-21 16:15 | 46.96357 | 7.43492 | 3258 ft | 130 kts | 131° |
| 2026-04-21 16:15 | 46.95734 | 7.44245 | 3098 ft | 111 kts | 131° |
| 2026-04-21 16:15 | 46.95174 | 7.44971 | 2863 ft | 105 kts | 130° |
| 2026-04-21 16:16 | 46.94645 | 7.45689 | 2642 ft | 102 kts | 131° |
| 2026-04-21 16:16 | 46.94117 | 7.46357 | 2467 ft | 100 kts | 135° |
| 2026-04-21 16:16 | 46.93599 | 7.47005 | 2314 ft | 94 kts | 134° |
| 2026-04-21 16:16 | 46.93128 | 7.47572 | 2132 ft | 87 kts | 131° |
| 2026-04-21 16:17 | 46.92682 | 7.48138 | 1973 ft | 85 kts | 131° |
| 2026-04-21 16:17 | 46.92238 | 7.48691 | 1844 ft | 83 kts | 128° |
| 2026-04-21 16:17 | 46.91791 | 7.49241 | 1703 ft | 81 kts | 131° |
| 2026-04-21 16:17 | 46.91423 | 7.49705 | 1679 ft | 61 kts | 139° |
| 2026-04-21 16:18 | 46.91146 | 7.50052 | 1682 ft | 40 kts | 144° |
| 2026-04-21 16:18 | 46.91068 | 7.50162 | 1685 ft | 3 kts | 72° |
| 2026-04-21 16:18 | 46.91069 | 7.50165 | 1683 ft | 0 kts | 63° |
| 2026-04-21 16:18 | 46.91087 | 7.50198 | 1686 ft | 9 kts | 50° |
| 2026-04-21 16:19 | 46.91106 | 7.50265 | 1682 ft | 9 kts | 86° |
| 2026-04-21 16:19 | 46.91114 | 7.50284 | 1686 ft | 0 kts | 40° |